createdAt,value
2022-07-26T00:01:45.761Z,19.95
2022-07-26T00:04:12.533Z,20.02
2022-07-26T00:06:39.395Z,20.02
2022-07-26T00:09:11.149Z,20.00
2022-07-26T00:11:38.172Z,19.98
2022-07-26T00:14:06.817Z,20.01
2022-07-26T00:16:36.236Z,19.97
2022-07-26T00:19:04.645Z,19.99
2022-07-26T00:21:31.791Z,19.93
2022-07-26T00:24:00.584Z,19.94
2022-07-26T00:26:27.113Z,19.91
2022-07-26T00:28:53.667Z,19.95
2022-07-26T00:31:20.413Z,19.95
2022-07-26T00:33:49.262Z,19.88
2022-07-26T00:36:15.942Z,19.93
2022-07-26T00:38:42.649Z,19.87
2022-07-26T00:41:09.415Z,19.90
2022-07-26T00:43:38.282Z,19.91
2022-07-26T00:46:05.063Z,19.91
2022-07-26T00:48:33.961Z,19.91
2022-07-26T00:51:00.672Z,19.88
2022-07-26T00:53:27.337Z,19.88
2022-07-26T00:55:53.964Z,19.87
2022-07-26T00:58:20.549Z,19.84
2022-07-26T01:00:47.308Z,19.85
2022-07-26T01:03:13.953Z,19.84
2022-07-26T01:05:43.010Z,19.73
2022-07-26T01:08:09.722Z,19.81
2022-07-26T01:10:40.031Z,19.81
2022-07-26T01:13:06.693Z,19.80
2022-07-26T01:15:35.659Z,19.76
2022-07-26T01:18:02.229Z,19.75
2022-07-26T01:20:28.890Z,19.79
2022-07-26T01:22:55.482Z,19.81
2022-07-26T01:25:33.090Z,19.81
2022-07-26T01:28:19.759Z,19.77
2022-07-26T01:30:47.876Z,19.79
2022-07-26T01:33:14.498Z,19.81
2022-07-26T01:35:41.085Z,19.76
2022-07-26T01:38:10.061Z,19.72
2022-07-26T01:40:36.663Z,19.77
2022-07-26T01:43:03.640Z,19.46
2022-07-26T01:45:30.407Z,19.69
2022-07-26T01:47:57.042Z,19.70
2022-07-26T01:50:23.634Z,19.72
2022-07-26T01:52:50.193Z,19.69
2022-07-26T01:55:16.864Z,19.66
2022-07-26T01:57:45.831Z,19.69
2022-07-26T02:00:12.996Z,19.34
2022-07-26T02:02:39.664Z,19.48
2022-07-26T02:05:09.109Z,19.71
2022-07-26T02:07:44.578Z,19.70
2022-07-26T02:10:12.879Z,19.66
2022-07-26T02:12:41.058Z,19.71
2022-07-26T02:15:08.939Z,19.67
2022-07-26T02:17:35.622Z,19.66
2022-07-26T02:20:02.323Z,19.65
2022-07-26T02:22:31.215Z,19.64
2022-07-26T02:25:02.980Z,19.64
2022-07-26T02:27:31.464Z,19.55
2022-07-26T02:30:00.574Z,19.55
2022-07-26T02:32:27.121Z,19.57
2022-07-26T02:34:55.942Z,19.56
2022-07-26T02:37:22.496Z,19.52
2022-07-26T02:39:49.092Z,19.48
2022-07-26T02:42:17.905Z,19.49
2022-07-26T02:44:44.833Z,19.52
2022-07-26T02:47:12.713Z,19.43
2022-07-26T02:49:39.413Z,19.46
2022-07-26T02:52:06.034Z,19.28
2022-07-26T02:54:32.686Z,19.40
2022-07-26T02:57:01.732Z,19.35
2022-07-26T02:59:28.420Z,19.23
2022-07-26T03:01:55.160Z,19.25
2022-07-26T03:04:21.884Z,19.21
2022-07-26T03:06:48.441Z,19.13
2022-07-26T03:09:17.225Z,19.04
2022-07-26T03:11:43.790Z,19.03
2022-07-26T03:14:10.758Z,19.02
2022-07-26T03:16:38.916Z,19.08
2022-07-26T03:19:05.522Z,18.99
2022-07-26T03:21:32.250Z,19.00
2022-07-26T03:23:58.844Z,19.02
2022-07-26T03:26:29.297Z,18.98
2022-07-26T03:28:56.298Z,18.97
2022-07-26T03:31:23.611Z,18.91
2022-07-26T03:33:50.313Z,18.92
2022-07-26T03:36:19.238Z,18.80
2022-07-26T03:38:45.805Z,18.85
2022-07-26T03:41:13.641Z,18.83
2022-07-26T03:43:40.684Z,18.85
2022-07-26T03:46:09.466Z,18.81
2022-07-26T03:48:36.161Z,18.84
2022-07-26T03:51:05.122Z,18.87
2022-07-26T03:53:31.719Z,18.96
2022-07-26T03:56:17.650Z,19.02
2022-07-26T03:58:44.233Z,19.04
2022-07-26T04:01:13.275Z,19.03
2022-07-26T04:03:42.178Z,19.13
2022-07-26T04:06:16.595Z,19.17
2022-07-26T04:08:46.778Z,19.17
2022-07-26T04:11:13.387Z,19.25
2022-07-26T04:13:40.542Z,19.18
2022-07-26T04:16:07.391Z,19.31
2022-07-26T04:18:34.029Z,19.30
2022-07-26T04:21:00.811Z,19.26
2022-07-26T04:23:27.544Z,19.41
2022-07-26T04:25:54.236Z,19.43
2022-07-26T04:28:23.284Z,19.41
2022-07-26T04:30:52.187Z,19.21
2022-07-26T04:33:18.860Z,19.35
2022-07-26T04:35:47.642Z,19.29
2022-07-26T04:38:14.639Z,19.26
2022-07-26T04:40:43.675Z,19.28
2022-07-26T04:43:15.350Z,19.39
2022-07-26T04:45:43.620Z,19.52
2022-07-26T04:48:10.345Z,19.52
2022-07-26T04:50:39.409Z,19.59
2022-07-26T04:53:06.044Z,19.66
2022-07-26T04:55:32.777Z,19.75
2022-07-26T04:58:03.870Z,19.85
2022-07-26T05:00:30.475Z,19.98
2022-07-26T05:02:59.178Z,20.55
2022-07-26T05:05:31.036Z,22.60
2022-07-26T05:07:59.756Z,24.39
2022-07-26T05:10:32.734Z,25.90
2022-07-26T05:12:59.482Z,26.96
2022-07-26T05:15:33.008Z,27.80
2022-07-26T05:18:10.283Z,28.69
2022-07-26T05:20:39.321Z,29.48
2022-07-26T05:23:08.746Z,30.14
2022-07-26T05:25:35.559Z,30.86
2022-07-26T05:28:04.622Z,31.32
2022-07-26T05:30:33.701Z,32.06
2022-07-26T05:33:00.364Z,32.35
2022-07-26T05:35:27.080Z,32.78
2022-07-26T05:37:53.713Z,32.86
2022-07-26T05:40:20.268Z,32.91
2022-07-26T05:42:47.237Z,32.73
2022-07-26T05:45:16.412Z,31.35
2022-07-26T05:47:43.029Z,30.33
2022-07-26T05:50:10.214Z,29.09
2022-07-26T05:52:36.849Z,28.12
2022-07-26T05:55:03.775Z,27.12
2022-07-26T05:57:30.810Z,26.60
2022-07-26T05:59:57.639Z,26.53
2022-07-26T06:02:24.339Z,26.18
2022-07-26T06:04:51.017Z,26.08
2022-07-26T06:07:17.617Z,28.04
2022-07-26T06:09:44.425Z,29.64
2022-07-26T06:12:11.028Z,31.57
2022-07-26T06:14:37.615Z,32.89
2022-07-26T06:17:04.744Z,33.60
2022-07-26T06:19:31.900Z,34.31
2022-07-26T06:22:00.244Z,34.73
2022-07-26T06:24:29.868Z,35.22
2022-07-26T06:27:04.957Z,35.50
2022-07-26T06:29:34.542Z,34.92
2022-07-26T06:32:01.422Z,35.43
2022-07-26T06:34:28.625Z,35.31
2022-07-26T06:36:57.188Z,34.01
2022-07-26T06:39:25.683Z,34.35
2022-07-26T06:41:57.467Z,33.63
2022-07-26T06:44:24.654Z,30.61
2022-07-26T06:46:52.077Z,28.85
2022-07-26T06:49:23.437Z,29.16
2022-07-26T06:51:53.082Z,27.82
2022-07-26T06:54:22.615Z,26.70
2022-07-26T06:56:56.887Z,25.99
2022-07-26T06:59:25.647Z,25.51
2022-07-26T07:01:59.305Z,25.76
2022-07-26T07:04:34.326Z,26.93
2022-07-26T07:07:10.738Z,28.78
2022-07-26T07:09:40.494Z,28.95
2022-07-26T07:12:10.105Z,27.30
2022-07-26T07:14:37.500Z,26.09
2022-07-26T07:17:10.372Z,25.61
2022-07-26T07:19:41.937Z,25.55
2022-07-26T07:22:12.019Z,24.99
2022-07-26T07:24:42.613Z,24.55
2022-07-26T07:27:10.610Z,24.19
2022-07-26T07:29:37.631Z,23.89
2022-07-26T07:32:07.878Z,24.13
2022-07-26T07:34:42.692Z,24.87
2022-07-26T07:37:10.586Z,24.55
2022-07-26T07:39:41.000Z,24.04
2022-07-26T07:42:08.081Z,23.64
2022-07-26T07:44:34.730Z,23.41
2022-07-26T07:47:01.904Z,23.28
2022-07-26T07:49:28.659Z,23.06
2022-07-26T07:51:55.807Z,23.15
2022-07-26T07:54:22.443Z,23.14
2022-07-26T07:56:49.318Z,22.95
2022-07-26T07:59:18.996Z,22.51
2022-07-26T08:01:50.060Z,21.90
2022-07-26T08:04:17.007Z,21.95
2022-07-26T08:06:50.269Z,22.00
2022-07-26T08:09:18.854Z,22.67
2022-07-26T08:11:45.874Z,23.39
2022-07-26T08:14:20.123Z,23.42
2022-07-26T08:16:47.057Z,23.84
2022-07-26T08:19:14.501Z,24.18
2022-07-26T08:21:42.972Z,24.34
2022-07-26T08:24:10.861Z,24.22
2022-07-26T08:26:38.350Z,24.63
2022-07-26T08:29:05.283Z,24.82
2022-07-26T08:31:32.091Z,24.41
2022-07-26T08:33:58.814Z,24.37
2022-07-26T08:36:31.822Z,23.98
2022-07-26T08:39:01.839Z,23.73
2022-07-26T08:41:29.198Z,23.84
2022-07-26T08:44:06.508Z,23.40
2022-07-26T08:46:39.784Z,23.40
2022-07-26T08:49:08.645Z,23.25
2022-07-26T08:51:39.679Z,22.96
2022-07-26T08:54:06.997Z,23.36
2022-07-26T08:56:40.633Z,23.43
2022-07-26T08:59:21.415Z,23.07
2022-07-26T09:01:52.018Z,22.90
2022-07-26T09:04:31.834Z,23.22
2022-07-26T09:07:13.352Z,23.04
2022-07-26T09:09:58.382Z,22.55
2022-07-26T09:12:26.088Z,22.54
2022-07-26T09:14:53.779Z,23.89
2022-07-26T09:17:22.166Z,24.39
2022-07-26T09:20:09.799Z,24.07
2022-07-26T09:22:41.257Z,24.08
2022-07-26T09:25:21.622Z,24.71
2022-07-26T09:27:48.254Z,25.70
2022-07-26T09:30:16.613Z,26.39
2022-07-26T09:33:13.797Z,26.14
2022-07-26T09:35:52.275Z,25.63
2022-07-26T09:38:19.882Z,25.09
2022-07-26T09:40:50.883Z,24.92
2022-07-26T09:43:24.025Z,24.63
2022-07-26T09:46:07.363Z,24.50
2022-07-26T09:49:09.428Z,24.32
2022-07-26T09:51:42.005Z,24.14
2022-07-26T09:54:11.012Z,24.20
2022-07-26T09:56:50.315Z,24.21
2022-07-26T09:59:19.692Z,24.05
2022-07-26T10:01:53.596Z,24.22
2022-07-26T10:04:21.522Z,24.52
2022-07-26T10:06:48.716Z,24.80
2022-07-26T10:09:18.882Z,25.40
2022-07-26T10:12:02.597Z,26.00
2022-07-26T10:14:37.776Z,26.14
2022-07-26T10:17:31.470Z,25.79
2022-07-26T10:20:01.815Z,26.04
2022-07-26T10:22:33.939Z,25.98
2022-07-26T10:25:19.125Z,25.96
2022-07-26T10:27:53.689Z,25.99
2022-07-26T10:30:20.432Z,25.47
2022-07-26T10:33:07.623Z,25.25
2022-07-26T10:35:34.166Z,24.90
2022-07-26T10:38:03.981Z,24.46
2022-07-26T10:40:31.091Z,23.87
2022-07-26T10:43:39.144Z,23.23
2022-07-26T10:46:16.489Z,22.84
2022-07-26T10:49:00.285Z,22.61
2022-07-26T10:51:32.509Z,22.49
2022-07-26T10:54:10.527Z,22.38
2022-07-26T10:56:38.364Z,22.15
2022-07-26T10:59:06.462Z,22.10
2022-07-26T11:01:33.999Z,21.76
2022-07-26T11:04:00.882Z,22.00
2022-07-26T11:06:30.473Z,21.96
2022-07-26T11:08:57.141Z,22.03
2022-07-26T11:11:32.544Z,22.16
2022-07-26T11:14:10.403Z,22.28
2022-07-26T11:16:41.830Z,22.35
2022-07-26T11:19:23.281Z,22.52
2022-07-26T11:21:59.120Z,22.62
2022-07-26T11:24:26.880Z,22.65
2022-07-26T11:26:54.045Z,22.76
2022-07-26T11:29:40.516Z,22.90
2022-07-26T11:32:18.556Z,23.06
2022-07-26T11:34:46.461Z,23.32
2022-07-26T11:37:13.789Z,23.34
2022-07-26T11:39:43.119Z,23.11
2022-07-26T11:42:19.616Z,23.15
2022-07-26T11:44:53.956Z,22.83
2022-07-26T11:47:24.507Z,22.33
2022-07-26T11:50:12.381Z,21.92
2022-07-26T11:52:39.117Z,21.64
2022-07-26T11:55:06.847Z,21.59
2022-07-26T11:57:33.476Z,21.46
2022-07-26T12:00:01.227Z,21.40
2022-07-26T12:02:31.821Z,21.34
2022-07-26T12:05:21.943Z,21.30
2022-07-26T12:08:04.140Z,21.28
2022-07-26T12:10:33.218Z,21.37
2022-07-26T12:13:08.035Z,21.65
2022-07-26T12:15:47.158Z,21.97
2022-07-26T12:18:30.819Z,22.27
2022-07-26T12:21:07.699Z,22.64
2022-07-26T12:23:49.327Z,22.82
2022-07-26T12:26:28.342Z,23.16
2022-07-26T12:28:56.061Z,23.39
2022-07-26T12:31:27.415Z,23.37
2022-07-26T12:33:54.185Z,23.31
2022-07-26T12:36:27.506Z,23.19
2022-07-26T12:39:00.207Z,23.09
2022-07-26T12:41:40.250Z,22.82
2022-07-26T12:44:11.879Z,22.70
2022-07-26T12:46:39.245Z,22.72
2022-07-26T12:49:06.131Z,22.46
2022-07-26T12:51:35.621Z,22.36
2022-07-26T12:59:01.374Z,22.25
2022-07-26T13:01:29.519Z,22.16
2022-07-26T13:03:56.437Z,22.15
2022-07-26T13:06:23.091Z,22.23
2022-07-26T13:08:50.179Z,22.37
2022-07-26T13:11:16.873Z,22.28
2022-07-26T13:13:46.014Z,22.21
2022-07-26T13:16:14.796Z,22.10
2022-07-26T13:18:41.370Z,21.93
2022-07-26T13:21:08.034Z,21.83
2022-07-26T13:23:35.666Z,21.80
2022-07-26T13:26:03.595Z,21.76
2022-07-26T13:28:30.873Z,21.81
2022-07-26T13:30:57.619Z,21.91
2022-07-26T13:33:24.313Z,22.00
2022-07-26T13:35:50.864Z,22.10
2022-07-26T13:38:19.673Z,21.97
2022-07-26T13:40:46.284Z,21.73
2022-07-26T13:43:12.847Z,21.47
2022-07-26T13:45:39.437Z,21.25
2022-07-26T13:48:08.612Z,21.12
2022-07-26T13:50:38.223Z,21.04
2022-07-26T13:53:04.828Z,21.13
2022-07-26T13:55:31.446Z,21.39
2022-07-26T13:58:00.256Z,21.44
2022-07-26T14:00:29.273Z,21.50
2022-07-26T14:02:59.073Z,21.59
2022-07-26T14:05:28.745Z,21.78
2022-07-26T14:07:55.649Z,21.86
2022-07-26T14:10:25.706Z,21.79
2022-07-26T14:12:52.610Z,21.89
2022-07-26T14:15:22.543Z,22.06
2022-07-26T14:17:51.417Z,22.05
2022-07-26T14:20:18.268Z,22.01
2022-07-26T14:22:45.366Z,22.04
2022-07-26T14:25:14.944Z,22.36
2022-07-26T14:27:41.520Z,22.49
2022-07-26T14:30:08.423Z,22.51
2022-07-26T14:32:35.251Z,22.46
2022-07-26T14:35:02.014Z,22.53
2022-07-26T14:37:44.121Z,22.51
2022-07-26T14:40:13.833Z,22.75
2022-07-26T14:42:40.711Z,22.80
2022-07-26T14:45:10.374Z,22.76
2022-07-26T14:47:40.198Z,22.77
2022-07-26T14:50:08.397Z,22.42
2022-07-26T14:52:40.997Z,22.43
2022-07-26T14:55:08.871Z,22.31
2022-07-26T14:57:39.507Z,22.18
2022-07-26T15:00:09.112Z,22.49
2022-07-26T15:02:37.743Z,22.49
2022-07-26T15:05:04.623Z,22.47
2022-07-26T15:07:33.430Z,22.48
2022-07-26T15:09:59.976Z,22.48
2022-07-26T15:12:26.623Z,22.37
2022-07-26T15:14:53.219Z,22.41
2022-07-26T15:17:20.415Z,22.53
2022-07-26T15:19:47.255Z,22.48
2022-07-26T15:22:17.410Z,22.36
2022-07-26T15:24:46.428Z,22.32
2022-07-26T15:27:13.189Z,22.17
2022-07-26T15:29:40.165Z,22.07
2022-07-26T15:32:09.080Z,21.95
2022-07-26T15:34:38.060Z,21.80
2022-07-26T15:37:04.609Z,21.81
2022-07-26T15:39:31.260Z,22.07
2022-07-26T15:42:05.398Z,22.02
2022-07-26T15:44:34.299Z,21.96
2022-07-26T15:47:00.847Z,21.81
2022-07-26T15:49:27.503Z,21.71
2022-07-26T15:51:54.222Z,21.72
2022-07-26T15:54:20.860Z,21.72
2022-07-26T15:56:47.573Z,21.83
2022-07-26T15:59:14.186Z,21.80
2022-07-26T16:01:43.074Z,21.84
2022-07-26T16:04:10.113Z,21.86
2022-07-26T16:06:37.040Z,21.85
2022-07-26T16:09:17.883Z,21.86
2022-07-26T16:11:45.542Z,21.71
2022-07-26T16:14:12.598Z,21.65
2022-07-26T16:16:39.236Z,21.58
2022-07-26T16:19:05.878Z,21.53
2022-07-26T16:21:32.601Z,21.60
2022-07-26T16:24:04.449Z,21.60
2022-07-26T16:26:33.596Z,21.67
2022-07-26T16:29:00.820Z,21.77
2022-07-26T16:31:27.716Z,21.84
2022-07-26T16:33:59.149Z,21.81
2022-07-26T16:36:25.796Z,21.67
2022-07-26T16:38:52.377Z,21.57
2022-07-26T16:41:19.234Z,21.48
2022-07-26T16:43:48.175Z,21.45
2022-07-26T16:46:17.580Z,21.43
2022-07-26T16:48:44.400Z,21.37
2022-07-26T16:51:13.465Z,21.25
2022-07-26T16:53:41.373Z,21.09
2022-07-26T16:56:08.029Z,21.02
2022-07-26T16:58:35.958Z,20.88
2022-07-26T17:01:02.808Z,20.81
2022-07-26T17:03:29.534Z,20.87
2022-07-26T17:05:56.075Z,20.82
2022-07-26T17:08:22.995Z,20.77
2022-07-26T17:10:49.573Z,20.73
2022-07-26T17:13:19.381Z,20.68
2022-07-26T17:15:47.751Z,20.61
2022-07-26T17:18:14.438Z,20.38
2022-07-26T17:20:42.144Z,20.49
2022-07-26T17:23:11.268Z,20.43
2022-07-26T17:25:37.910Z,20.44
2022-07-26T17:28:04.798Z,20.37
2022-07-26T17:30:31.446Z,20.34
2022-07-26T17:32:58.031Z,20.30
2022-07-26T17:35:24.767Z,20.23
2022-07-26T17:37:55.617Z,20.19
2022-07-26T17:40:23.560Z,20.17
2022-07-26T17:42:52.684Z,20.15
2022-07-26T17:45:19.383Z,20.02
2022-07-26T17:47:46.828Z,20.04
2022-07-26T17:50:35.136Z,20.09
2022-07-26T17:53:00.087Z,20.08
2022-07-26T17:55:29.227Z,20.08
2022-07-26T17:57:55.804Z,20.08
2022-07-26T18:00:23.224Z,20.02
2022-07-26T18:02:58.257Z,19.98
2022-07-26T18:05:32.248Z,19.90
2022-07-26T18:08:00.817Z,19.87
2022-07-26T18:10:28.331Z,19.85
2022-07-26T18:12:55.562Z,19.82
2022-07-26T18:15:22.472Z,19.73
2022-07-26T18:17:49.073Z,19.71
2022-07-26T18:20:15.809Z,19.70
2022-07-26T18:22:42.355Z,19.65
2022-07-26T18:25:12.714Z,19.57
2022-07-26T18:27:39.299Z,19.52
2022-07-26T18:30:08.854Z,19.41
2022-07-26T18:32:35.613Z,19.40
2022-07-26T18:35:02.354Z,19.39
2022-07-26T18:37:28.936Z,19.35
2022-07-26T18:39:57.855Z,19.30
2022-07-26T18:42:25.092Z,19.23
2022-07-26T18:44:51.877Z,19.21
2022-07-26T18:47:20.748Z,19.13
2022-07-26T18:49:47.327Z,19.05
2022-07-26T18:52:14.046Z,19.04
2022-07-26T18:54:41.475Z,19.08
2022-07-26T18:57:08.080Z,19.03
2022-07-26T18:59:34.652Z,18.93
2022-07-26T19:02:03.640Z,18.89
2022-07-26T19:04:30.441Z,18.87
2022-07-26T19:06:59.716Z,18.78
2022-07-26T19:09:26.335Z,18.76
2022-07-26T19:11:52.938Z,18.61
2022-07-26T19:14:19.534Z,18.69
2022-07-26T19:16:46.155Z,18.62
2022-07-26T19:19:13.151Z,18.53
2022-07-26T19:21:44.869Z,18.47
2022-07-26T19:24:11.419Z,18.42
2022-07-26T19:26:38.127Z,18.27
2022-07-26T19:29:04.737Z,18.25
2022-07-26T19:31:32.052Z,18.21
2022-07-26T19:33:58.648Z,18.07
2022-07-26T19:36:28.409Z,18.12
2022-07-26T19:38:56.715Z,18.00
2022-07-26T19:41:23.425Z,17.99
2022-07-26T19:43:49.953Z,17.97
2022-07-26T19:46:16.615Z,17.94
2022-07-26T19:48:45.654Z,17.78
2022-07-26T19:51:14.797Z,17.81
2022-07-26T19:53:41.614Z,17.78
2022-07-26T19:56:08.198Z,17.73
2022-07-26T19:58:39.989Z,17.70
2022-07-26T20:01:06.621Z,17.68
2022-07-26T20:03:33.329Z,17.65
2022-07-26T20:06:01.137Z,17.63
2022-07-26T20:08:27.748Z,17.61
2022-07-26T20:10:56.698Z,17.62
2022-07-26T20:13:23.325Z,17.60
2022-07-26T20:15:50.005Z,17.55
2022-07-26T20:18:19.577Z,17.57
2022-07-26T20:20:48.529Z,17.49
2022-07-26T20:23:15.081Z,17.53
2022-07-26T20:25:41.680Z,17.50
2022-07-26T20:28:08.242Z,17.44
2022-07-26T20:30:34.887Z,17.40
2022-07-26T20:33:03.777Z,17.36
2022-07-26T20:35:31.368Z,17.35
2022-07-26T20:37:57.943Z,17.34
2022-07-26T20:40:27.350Z,17.32
2022-07-26T20:42:53.948Z,17.25
2022-07-26T20:45:25.207Z,17.27
2022-07-26T20:47:53.393Z,17.25
2022-07-26T20:50:20.681Z,17.24
2022-07-26T20:52:48.632Z,17.22
2022-07-26T20:55:17.953Z,17.20
2022-07-26T20:57:45.756Z,17.13
2022-07-26T21:00:14.289Z,17.14
2022-07-26T21:02:41.005Z,17.08
2022-07-26T21:05:08.088Z,17.06
2022-07-26T21:07:58.562Z,17.03
2022-07-26T21:10:21.718Z,16.97
2022-07-26T21:12:49.653Z,16.92
2022-07-26T21:15:16.267Z,16.88
2022-07-26T21:17:45.153Z,16.78
2022-07-26T21:20:11.773Z,16.78
2022-07-26T21:22:38.311Z,16.76
2022-07-26T21:25:05.976Z,16.72
2022-07-26T21:27:32.581Z,16.61
2022-07-26T21:29:59.631Z,16.61
2022-07-26T21:32:31.553Z,16.54
2022-07-26T21:35:01.211Z,16.49
2022-07-26T21:37:27.934Z,16.46
2022-07-26T21:39:54.513Z,16.36
2022-07-26T21:42:21.356Z,16.41
2022-07-26T21:44:55.821Z,16.36
2022-07-26T21:47:25.017Z,16.35
2022-07-26T21:49:53.692Z,16.32
2022-07-26T21:52:20.253Z,16.29
2022-07-26T21:54:47.081Z,16.27
2022-07-26T21:57:16.641Z,16.24
2022-07-26T21:59:43.272Z,16.21
2022-07-26T22:02:14.478Z,16.04
2022-07-26T22:04:46.554Z,16.15
2022-07-26T22:07:13.276Z,16.10
2022-07-26T22:09:39.972Z,16.08
2022-07-26T22:12:06.835Z,16.04
2022-07-26T22:14:33.438Z,16.00
2022-07-26T22:17:00.135Z,15.98
2022-07-26T22:19:26.894Z,15.89
2022-07-26T22:21:53.597Z,15.82
2022-07-26T22:24:22.299Z,15.78
2022-07-26T22:26:48.934Z,15.77
2022-07-26T22:29:17.575Z,15.76
2022-07-26T22:31:44.261Z,15.71
2022-07-26T22:34:10.838Z,15.68
2022-07-26T22:36:40.010Z,15.64
2022-07-26T22:39:12.114Z,15.61
2022-07-26T22:42:05.057Z,15.59
2022-07-26T22:44:27.596Z,15.42
2022-07-26T22:46:54.646Z,15.52
2022-07-26T22:49:21.692Z,15.47
2022-07-26T22:51:50.353Z,15.40
2022-07-26T22:54:19.139Z,15.46
2022-07-26T22:56:46.612Z,15.39
2022-07-26T22:59:13.719Z,15.37
2022-07-26T23:01:40.679Z,15.39
2022-07-26T23:04:07.328Z,15.37
2022-07-26T23:06:37.446Z,15.34
2022-07-26T23:09:04.941Z,15.28
2022-07-26T23:11:32.790Z,15.26
2022-07-26T23:14:01.850Z,15.23
2022-07-26T23:16:31.095Z,15.19
2022-07-26T23:18:57.724Z,15.18
2022-07-26T23:21:24.323Z,15.11
2022-07-26T23:23:50.922Z,15.13
2022-07-26T23:26:17.680Z,15.12
2022-07-26T23:28:44.257Z,15.10
2022-07-26T23:31:11.918Z,15.12
2022-07-26T23:33:51.509Z,15.11
2022-07-26T23:36:20.453Z,15.08
2022-07-26T23:38:49.485Z,15.11
2022-07-26T23:41:16.082Z,14.72
2022-07-26T23:43:42.823Z,15.09
2022-07-26T23:46:09.392Z,15.10
2022-07-26T23:48:36.010Z,15.03
2022-07-26T23:51:02.582Z,15.05
2022-07-26T23:53:29.171Z,15.02
2022-07-26T23:55:55.789Z,14.96
2022-07-26T23:58:22.335Z,14.82
